createdAt,value
2022-10-23T00:01:27.646Z,100808.94
2022-10-23T00:04:31.044Z,100805.16
2022-10-23T00:07:33.307Z,100799.78
2022-10-23T00:10:35.672Z,100800.56
2022-10-23T00:13:38.633Z,100793.31
2022-10-23T00:16:40.805Z,100791.75
2022-10-23T00:19:42.964Z,100793.31
2022-10-23T00:22:45.178Z,100797.13
2022-10-23T00:25:50.478Z,100808.28
2022-10-23T00:28:54.002Z,100809.72
2022-10-23T00:31:56.176Z,100821.22
2022-10-23T00:34:58.486Z,100810.84
2022-10-23T00:38:00.666Z,100817.66
2022-10-23T00:41:04.052Z,100821.88
2022-10-23T00:44:18.455Z,100822.66
2022-10-23T00:47:21.161Z,100828.00
2022-10-23T00:50:25.533Z,100833.38
2022-10-23T00:53:27.689Z,100836.38
2022-10-23T00:56:31.483Z,100840.13
2022-10-23T00:59:34.082Z,100836.66
2022-10-23T01:02:36.324Z,100842.50
2022-10-23T01:06:05.635Z,100843.59
2022-10-23T01:09:23.780Z,100854.31
2022-10-23T01:12:33.183Z,100854.63
2022-10-23T01:15:44.537Z,100853.84
2022-10-23T01:18:59.104Z,100856.53
2022-10-23T01:22:16.373Z,100863.78
2022-10-23T01:25:42.380Z,100863.00
2022-10-23T01:29:21.834Z,100881.38
2022-10-23T01:32:40.369Z,100880.63
2022-10-23T01:35:50.164Z,100871.81
2022-10-23T01:38:58.835Z,100886.00
2022-10-23T01:42:08.547Z,100887.88
2022-10-23T01:45:21.668Z,100881.72
2022-10-23T01:48:28.441Z,100877.47
2022-10-23T01:51:33.209Z,100880.16
2022-10-23T01:54:44.545Z,100876.72
2022-10-23T01:57:48.842Z,100875.94
2022-10-23T02:00:52.914Z,100879.72
2022-10-23T02:07:04.926Z,100886.94
2022-10-23T02:10:09.479Z,100885.06
2022-10-23T02:13:19.213Z,100872.81
2022-10-23T02:16:42.338Z,100875.47
2022-10-23T02:20:01.456Z,100875.78
2022-10-23T02:23:21.885Z,100874.25
2022-10-23T02:26:28.600Z,100874.25
2022-10-23T02:29:35.758Z,100871.56
2022-10-23T02:32:42.600Z,100862.75
2022-10-23T02:35:48.289Z,100869.19
2022-10-23T02:38:56.258Z,100870.34
2022-10-23T02:42:09.371Z,100864.63
2022-10-23T02:45:36.352Z,100879.91
2022-10-23T02:48:51.668Z,100881.81
2022-10-23T02:52:23.638Z,100894.09
2022-10-23T02:55:29.010Z,100892.84
2022-10-23T02:58:31.143Z,100896.31
2022-10-23T03:01:44.699Z,100893.19
2022-10-23T03:04:47.971Z,100899.63
2022-10-23T03:07:50.588Z,100896.97
2022-10-23T03:10:53.743Z,100904.19
2022-10-23T03:13:57.414Z,100910.34
2022-10-23T03:16:59.630Z,100915.69
2022-10-23T03:20:01.956Z,100921.03
2022-10-23T03:23:04.203Z,100925.94
2022-10-23T03:26:06.387Z,100921.38
2022-10-23T03:29:13.858Z,100917.91
2022-10-23T03:32:19.300Z,100917.13
2022-10-23T03:35:21.462Z,100915.59
2022-10-23T03:38:23.707Z,100922.03
2022-10-23T03:41:25.917Z,100921.25
2022-10-23T03:44:28.397Z,100922.38
2022-10-23T03:47:35.211Z,100931.94
2022-10-23T03:50:37.452Z,100931.19
2022-10-23T03:53:40.886Z,100941.09
2022-10-23T03:56:43.030Z,100935.31
2022-10-23T03:59:45.260Z,100941.41
2022-10-23T04:02:47.889Z,100943.34
2022-10-23T04:05:52.315Z,100949.78
2022-10-23T04:08:56.987Z,100947.91
2022-10-23T04:11:59.152Z,100944.63
2022-10-23T04:15:03.912Z,100935.63
2022-10-23T04:18:06.069Z,100940.50
2022-10-23T04:21:08.662Z,100935.50
2022-10-23T04:24:11.046Z,100927.91
2022-10-23T04:27:13.594Z,100922.88
2022-10-23T04:30:15.952Z,100925.25
2022-10-23T04:33:20.716Z,100918.31
2022-10-23T04:36:25.630Z,100916.44
2022-10-23T04:39:27.976Z,100908.75
2022-10-23T04:42:30.189Z,100919.09
2022-10-23T04:45:34.993Z,100919.09
2022-10-23T04:48:37.146Z,100910.63
2022-10-23T04:51:55.818Z,100916.44
2022-10-23T04:55:25.429Z,100927.13
2022-10-23T04:58:47.872Z,100936.25
2022-10-23T05:01:50.344Z,100930.91
2022-10-23T05:04:53.685Z,100930.91
2022-10-23T05:08:15.594Z,100939.28
2022-10-23T05:11:40.110Z,100935.03
2022-10-23T05:14:44.009Z,100945.72
2022-10-23T05:17:49.774Z,100944.97
2022-10-23T05:21:01.005Z,100945.72
2022-10-23T05:24:03.283Z,100949.53
2022-10-23T05:27:05.521Z,100936.16
2022-10-23T05:30:08.294Z,100941.03
2022-10-23T05:33:12.643Z,100941.81
2022-10-23T05:36:17.531Z,100954.09
2022-10-23T05:39:20.857Z,100942.59
2022-10-23T05:42:23.092Z,100951.41
2022-10-23T05:45:26.532Z,100949.19
2022-10-23T05:48:51.103Z,100957.03
2022-10-23T05:52:11.708Z,100965.66
2022-10-23T05:55:29.336Z,100960.22
2022-10-23T05:58:50.065Z,100976.53
2022-10-23T06:02:04.132Z,100975.88
2022-10-23T06:05:23.917Z,100971.94
2022-10-23T06:08:49.265Z,100975.66
2022-10-23T06:11:54.092Z,100986.63
2022-10-23T06:14:58.016Z,100994.47
2022-10-23T06:18:10.540Z,100996.16
2022-10-23T06:21:23.360Z,100983.66
2022-10-23T06:24:26.197Z,100989.59
2022-10-23T06:27:33.923Z,100991.72
2022-10-23T06:30:39.319Z,100988.25
2022-10-23T06:33:42.390Z,100988.72
2022-10-23T06:36:45.462Z,100997.53
2022-10-23T06:40:11.027Z,100993.41
2022-10-23T06:43:50.037Z,101007.06
2022-10-23T06:47:14.529Z,101006.53
2022-10-23T06:50:38.332Z,101014.03
2022-10-23T06:53:46.613Z,101025.31
2022-10-23T06:57:14.634Z,101009.47
2022-10-23T07:00:21.669Z,101020.03
2022-10-23T07:03:28.410Z,101014.75
2022-10-23T07:06:30.902Z,101004.94
2022-10-23T07:09:36.159Z,101010.41
2022-10-23T07:13:00.691Z,101013.34
2022-10-23T07:16:17.889Z,101023.06
2022-10-23T07:19:20.314Z,101031.22
2022-10-23T07:22:33.200Z,101032.13
2022-10-23T07:25:45.783Z,101030.31
2022-10-23T07:28:55.222Z,101021.16
2022-10-23T07:32:04.432Z,101027.09
2022-10-23T07:35:26.538Z,101030.22
2022-10-23T07:38:39.180Z,101028.44
2022-10-23T07:41:41.363Z,101027.41
2022-10-23T07:44:43.605Z,101028.66
2022-10-23T07:47:51.182Z,101023.41
2022-10-23T07:50:58.310Z,101020.38
2022-10-23T07:54:00.572Z,101017.38
2022-10-23T07:57:25.616Z,101031.22
2022-10-23T08:00:40.642Z,101031.31
2022-10-23T08:03:50.990Z,101033.69
2022-10-23T08:06:53.671Z,101028.75
2022-10-23T08:09:55.917Z,101027.63
2022-10-23T08:12:58.105Z,101021.59
2022-10-23T08:16:19.088Z,101015.78
2022-10-23T08:19:30.330Z,101011.78
2022-10-23T08:22:36.824Z,101013.00
2022-10-23T08:25:40.615Z,101022.28
2022-10-23T08:28:44.125Z,101018.47
2022-10-23T08:31:46.697Z,101015.78
2022-10-23T08:34:56.041Z,101013.56
2022-10-23T08:37:59.715Z,101011.31
2022-10-23T08:41:06.474Z,101017.47
2022-10-23T08:44:35.431Z,101012.44
2022-10-23T08:47:46.597Z,101016.78
2022-10-23T08:51:43.997Z,101026.44
2022-10-23T08:54:54.733Z,101017.56
2022-10-23T08:58:07.657Z,101020.25
2022-10-23T09:01:33.023Z,101021.38
2022-10-23T09:04:35.378Z,101017.91
2022-10-23T09:08:18.408Z,101020.25
2022-10-23T09:11:26.181Z,101018.38
2022-10-23T09:14:46.909Z,101013.31
2022-10-23T09:17:56.040Z,101020.16
2022-10-23T09:20:58.468Z,101013.22
2022-10-23T09:24:00.632Z,101018.25
2022-10-23T09:30:05.924Z,101030.88
2022-10-23T09:33:22.252Z,101029.66
2022-10-23T09:36:25.916Z,101023.50
2022-10-23T09:39:34.796Z,101016.59
2022-10-23T09:42:37.046Z,101030.00
2022-10-23T09:45:42.405Z,101028.34
2022-10-23T09:48:59.822Z,101034.81
2022-10-23T09:52:10.537Z,101029.78
2022-10-23T09:55:24.864Z,101018.63
2022-10-23T09:58:33.531Z,101028.09
2022-10-23T10:01:47.092Z,101021.16
2022-10-23T10:05:24.786Z,101024.94
2022-10-23T10:08:34.186Z,101030.31
2022-10-23T10:11:39.199Z,101026.41
2022-10-23T10:14:53.502Z,101014.13
2022-10-23T10:18:10.652Z,101013.31
2022-10-23T10:21:23.057Z,100993.00
2022-10-23T10:24:51.149Z,100991.75
2022-10-23T10:28:10.317Z,100984.81
2022-10-23T10:31:33.521Z,100973.97
2022-10-23T10:34:51.350Z,100982.00
2022-10-23T10:37:56.637Z,100973.53
2022-10-23T10:41:36.151Z,100983.47
2022-10-23T10:44:50.202Z,100972.28
2022-10-23T10:48:11.937Z,100968.06
2022-10-23T10:51:51.242Z,100966.84
2022-10-23T10:55:14.949Z,100966.84
2022-10-23T10:58:41.470Z,100959.09
2022-10-23T11:02:13.913Z,100966.72
2022-10-23T11:05:26.418Z,100947.84
2022-10-23T11:08:49.841Z,100945.47
2022-10-23T11:11:59.976Z,100942.03
2022-10-23T11:15:02.208Z,100934.66
2022-10-23T11:18:13.268Z,100931.19
2022-10-23T11:21:35.224Z,100928.84
2022-10-23T11:24:52.387Z,100932.28
2022-10-23T11:28:44.651Z,100915.44
2022-10-23T11:32:21.922Z,100924.59
2022-10-23T11:35:38.214Z,100914.97
2022-10-23T11:38:43.985Z,100920.69
2022-10-23T11:42:00.807Z,100923.38
2022-10-23T11:45:03.120Z,100922.13
2022-10-23T11:48:14.105Z,100920.25
2022-10-23T11:51:35.869Z,100915.97
2022-10-23T11:54:38.036Z,100910.63
2022-10-23T11:57:40.260Z,100910.31
2022-10-23T12:01:12.165Z,100912.53
2022-10-23T12:04:14.326Z,100910.63
2022-10-23T12:07:26.229Z,100901.03
2022-10-23T12:10:31.180Z,100907.94
2022-10-23T12:13:39.315Z,100902.91
2022-10-23T12:16:41.496Z,100895.22
2022-10-23T12:19:48.598Z,100891.75
2022-10-23T12:23:04.339Z,100892.53
2022-10-23T12:26:30.303Z,100889.38
2022-10-23T12:29:48.540Z,100876.75
2022-10-23T12:33:11.433Z,100878.22
2022-10-23T12:36:19.366Z,100871.31
2022-10-23T12:39:33.160Z,100884.25
2022-10-23T12:42:36.293Z,100877.34
2022-10-23T12:45:40.693Z,100863.06
2022-10-23T12:48:50.608Z,100872.28
2022-10-23T12:52:01.732Z,100858.13
2022-10-23T12:55:13.281Z,100851.19
2022-10-23T12:58:47.581Z,100855.75
2022-10-23T13:01:52.852Z,100852.66
2022-10-23T13:04:58.232Z,100851.53
2022-10-23T13:08:02.562Z,100858.34
2022-10-23T13:11:22.165Z,100853.78
2022-10-23T13:15:03.453Z,100853.78
2022-10-23T13:18:07.088Z,100846.50
2022-10-23T13:21:26.541Z,100842.25
2022-10-23T13:24:30.673Z,100838.44
2022-10-23T13:27:34.499Z,100831.53
2022-10-23T13:30:39.365Z,100826.50
2022-10-23T13:33:45.733Z,100823.06
2022-10-23T13:37:24.100Z,100824.94
2022-10-23T13:40:27.900Z,100820.69
2022-10-23T13:43:31.890Z,100821.03
2022-10-23T13:46:34.029Z,100818.69
2022-10-23T13:49:36.194Z,100817.13
2022-10-23T13:52:38.340Z,100817.91
2022-10-23T13:55:46.299Z,100816.34
2022-10-23T13:58:49.524Z,100808.66
2022-10-23T14:01:52.295Z,100800.59
2022-10-23T14:04:54.580Z,100805.19
2022-10-23T14:07:56.745Z,100802.50
2022-10-23T14:10:58.893Z,100805.97
2022-10-23T14:14:01.085Z,100800.59
2022-10-23T14:17:03.250Z,100783.72
2022-10-23T14:20:06.642Z,100779.47
2022-10-23T14:23:08.987Z,100785.97
2022-10-23T14:26:14.620Z,100785.19
2022-10-23T14:29:23.043Z,100782.84
2022-10-23T14:32:26.437Z,100785.84
2022-10-23T14:35:28.868Z,100776.72
2022-10-23T14:38:31.259Z,100774.81
2022-10-23T14:41:33.425Z,100776.25
2022-10-23T14:44:35.607Z,100769.00
2022-10-23T14:47:37.907Z,100766.31
2022-10-23T14:50:44.383Z,100749.75
2022-10-23T14:53:47.967Z,100742.50
2022-10-23T14:56:50.142Z,100752.44
2022-10-23T14:59:52.292Z,100756.25
2022-10-23T15:02:54.465Z,100759.25
2022-10-23T15:05:56.908Z,100754.69
2022-10-23T15:08:59.430Z,100758.50
2022-10-23T15:12:02.111Z,100755.81
2022-10-23T15:15:06.052Z,100744.63
2022-10-23T15:18:08.388Z,100732.00
2022-10-23T15:21:10.597Z,100722.88
2022-10-23T15:24:12.807Z,100717.81
2022-10-23T15:27:15.187Z,100715.13
2022-10-23T15:30:18.035Z,100715.13
2022-10-23T15:33:20.820Z,100726.66
2022-10-23T15:36:23.098Z,100729.31
2022-10-23T15:39:33.782Z,100733.91
2022-10-23T15:42:36.041Z,100738.03
2022-10-23T15:45:39.081Z,100733.47
2022-10-23T15:48:41.232Z,100737.28
2022-10-23T15:51:44.277Z,100737.28
2022-10-23T15:54:46.434Z,100742.66
2022-10-23T15:57:48.629Z,100739.97
2022-10-23T16:00:50.812Z,100741.06
2022-10-23T16:03:53.073Z,100748.00
2022-10-23T16:06:55.317Z,100744.53
2022-10-23T16:09:58.002Z,100748.31
2022-10-23T16:13:00.503Z,100753.69
2022-10-23T16:16:03.755Z,100761.28
2022-10-23T16:19:06.129Z,100759.41
2022-10-23T16:22:08.513Z,100763.19
2022-10-23T16:25:10.848Z,100764.31
2022-10-23T16:28:13.081Z,100768.09
2022-10-23T16:31:20.209Z,100776.94
2022-10-23T16:34:23.373Z,100785.75
2022-10-23T16:37:25.521Z,100784.97
2022-10-23T16:40:34.261Z,100778.47
2022-10-23T16:43:54.970Z,100773.47
2022-10-23T16:47:19.917Z,100779.59
2022-10-23T16:50:23.072Z,100780.41
2022-10-23T16:53:28.945Z,100774.25
2022-10-23T16:56:32.165Z,100771.13
2022-10-23T16:59:34.323Z,100782.63
2022-10-23T17:02:37.910Z,100789.88
2022-10-23T17:05:40.491Z,100797.16
2022-10-23T17:08:43.130Z,100800.94
2022-10-23T17:11:46.100Z,100799.03
2022-10-23T17:14:48.283Z,100804.41
2022-10-23T17:17:50.478Z,100806.28
2022-10-23T17:21:01.613Z,100798.25
2022-10-23T17:24:04.514Z,100789.44
2022-10-23T17:27:06.930Z,100793.59
2022-10-23T17:30:12.702Z,100782.06
2022-10-23T17:33:15.419Z,100780.19
2022-10-23T17:36:18.863Z,100777.50
2022-10-23T17:39:24.067Z,100770.91
2022-10-23T17:42:26.286Z,100770.78
2022-10-23T17:45:28.659Z,100784.31
2022-10-23T17:48:31.082Z,100779.72
2022-10-23T17:51:35.372Z,100766.31
2022-10-23T17:54:37.568Z,100755.59
2022-10-23T17:57:39.950Z,100752.91
2022-10-23T18:00:42.197Z,100750.59
2022-10-23T18:03:44.658Z,100764.41
2022-10-23T18:06:50.624Z,100764.78
2022-10-23T18:09:53.115Z,100765.56
2022-10-23T18:12:55.364Z,100760.50
2022-10-23T18:16:04.544Z,100763.88
2022-10-23T18:19:06.699Z,100765.88
2022-10-23T18:22:08.990Z,100771.22
2022-10-23T18:25:11.525Z,100768.13
2022-10-23T18:28:13.733Z,100768.56
2022-10-23T18:31:17.835Z,100770.44
2022-10-23T18:34:22.711Z,100776.94
2022-10-23T18:37:28.854Z,100778.47
2022-10-23T18:40:35.525Z,100766.22
2022-10-23T18:43:43.758Z,100767.75
2022-10-23T18:46:47.560Z,100759.72
2022-10-23T18:49:49.700Z,100760.06
2022-10-23T18:52:54.716Z,100757.41
2022-10-23T18:55:56.861Z,100757.75
2022-10-23T18:59:01.850Z,100755.06
2022-10-23T19:02:04.188Z,100763.88
2022-10-23T19:05:07.633Z,100763.88
2022-10-23T19:08:11.107Z,100763.88
2022-10-23T19:11:15.325Z,100760.44
2022-10-23T19:14:17.601Z,100762.31
2022-10-23T19:17:23.948Z,100763.09
2022-10-23T19:23:36.390Z,100762.31
2022-10-23T19:26:40.455Z,100765.00
2022-10-23T19:29:45.102Z,100769.56
2022-10-23T19:32:48.298Z,100771.47
2022-10-23T19:35:50.505Z,100772.25
2022-10-23T19:38:52.694Z,100756.53
2022-10-23T19:41:55.223Z,100748.47
2022-10-23T19:44:57.363Z,100748.47
2022-10-23T19:47:59.616Z,100748.47
2022-10-23T19:51:01.791Z,100753.06
2022-10-23T19:54:04.574Z,100761.09
2022-10-23T19:57:06.753Z,100767.22
2022-10-23T20:00:09.531Z,100763.75
2022-10-23T20:03:14.299Z,100761.44
2022-10-23T20:06:29.012Z,100769.47
2022-10-23T20:09:31.260Z,100775.59
2022-10-23T20:12:33.402Z,100783.63
2022-10-23T20:15:38.916Z,100782.88
2022-10-23T20:18:41.073Z,100774.03
2022-10-23T20:21:46.065Z,100764.44
2022-10-23T20:24:48.345Z,100773.25
2022-10-23T20:27:50.511Z,100771.69
2022-10-23T20:30:52.665Z,100767.09
2022-10-23T20:33:56.084Z,100767.91
2022-10-23T20:36:58.540Z,100768.69
2022-10-23T20:40:00.694Z,100762.88
2022-10-23T20:43:03.172Z,100762.53
2022-10-23T20:46:07.797Z,100744.13
2022-10-23T20:49:10.258Z,100737.97
2022-10-23T20:52:12.426Z,100731.06
2022-10-23T20:55:14.575Z,100731.06
2022-10-23T20:58:16.711Z,100732.19
2022-10-23T21:01:19.330Z,100727.59
2022-10-23T21:04:25.099Z,100722.22
2022-10-23T21:07:27.257Z,100720.34
2022-10-23T21:10:29.417Z,100718.78
2022-10-23T21:13:33.030Z,100718.78
2022-10-23T21:16:40.727Z,100720.69
2022-10-23T21:19:42.937Z,100724.47
2022-10-23T21:22:45.463Z,100718.34
2022-10-23T21:25:48.416Z,100720.69
2022-10-23T21:29:00.916Z,100714.88
2022-10-23T21:32:15.698Z,100716.00
2022-10-23T21:35:17.859Z,100722.13
2022-10-23T21:38:20.039Z,100724.81
2022-10-23T21:41:28.297Z,100725.59
2022-10-23T21:44:30.500Z,100719.03
2022-10-23T21:47:33.962Z,100721.34
2022-10-23T21:50:36.253Z,100732.06
2022-10-23T21:53:38.449Z,100742.00
2022-10-23T21:56:49.706Z,100722.00
2022-10-23T21:59:54.423Z,100723.59
2022-10-23T22:02:56.581Z,100714.44
2022-10-23T22:05:58.761Z,100710.19
2022-10-23T22:09:00.955Z,100720.13
2022-10-23T22:12:03.210Z,100718.56
2022-10-23T22:15:06.012Z,100726.63
2022-10-23T22:18:08.148Z,100719.34
2022-10-23T22:21:14.075Z,100714.75
2022-10-23T22:24:17.670Z,100722.38
2022-10-23T22:27:19.908Z,100722.38
2022-10-23T22:30:22.104Z,100722.38
2022-10-23T22:33:24.323Z,100724.59
2022-10-23T22:36:27.160Z,100718.09
2022-10-23T22:39:29.377Z,100726.94
2022-10-23T22:42:31.590Z,100739.53
2022-10-23T22:45:33.769Z,100734.19
2022-10-23T22:48:36.653Z,100728.06
2022-10-23T22:51:39.808Z,100726.50
2022-10-23T22:54:42.021Z,100729.97
2022-10-23T22:57:44.420Z,100713.09
2022-10-23T23:00:47.323Z,100717.66
2022-10-23T23:03:50.366Z,100708.09
2022-10-23T23:06:52.581Z,100706.94
2022-10-23T23:09:54.765Z,100709.63
2022-10-23T23:12:56.957Z,100706.16
2022-10-23T23:15:59.516Z,100706.16
2022-10-23T23:19:03.485Z,100708.09
2022-10-23T23:22:07.277Z,100701.16
2022-10-23T23:25:09.868Z,100716.44
2022-10-23T23:28:13.353Z,100703.84
2022-10-23T23:31:22.343Z,100711.88
2022-10-23T23:34:24.536Z,100710.28
2022-10-23T23:37:26.966Z,100712.97
2022-10-23T23:40:29.100Z,100706.06
2022-10-23T23:43:32.155Z,100701.50
2022-10-23T23:46:34.375Z,100691.09
2022-10-23T23:49:36.586Z,100692.69
2022-10-23T23:52:38.765Z,100697.25
2022-10-23T23:55:40.948Z,100698.03
2022-10-23T23:58:43.353Z,100703.03
